Have a Safe July 4th! 

Flight Track Log - Related Links

Times and Time Zones

All times are in EDT time to prevent confusion due to time zone crossing. See the SKW4602 flight status page for this flight to view local times or setup timezone preferences in your user account.

Time Position Orientation Groundspeed Altitude Reporting Facility
EDT Latitude Longitude Course Direction KTS MPH feet Rate Location/Type
Fri 09:33:42 AM 33.9467 -118.4472 307° West 162 186 1,400  Level Los Angeles Center
Fri 09:34:43 AM 33.9367 -118.5331 262° West 233 268 4,400 3,049 Climbing Los Angeles Center
Fri 09:35:44 AM 33.9239 -118.6264 261° West 281 323 7,600 3,295 Climbing Los Angeles Center
Fri 09:36:00 AM 34.0630 -118.8825 296° West  Level FlightAware Approximate
Fri 09:36:45 AM 33.9053 -118.7269 257° West 309 356 11,100  Level Los Angeles Center
Fri 09:37:00 AM 34.1000 -119.0011 270° West  Level FlightAware Approximate
Fri 09:37:47 AM 33.8886 -118.8314 259° West 319 367 14,500  Level Los Angeles Center
Fri 09:38:00 AM 34.1400 -119.1106 307° West  Level FlightAware Approximate
Fri 09:38:48 AM 33.9389 -118.9136 306° West 307 353 17,800  Level Los Angeles Center
Fri 09:39:00 AM 34.2035 -119.2122 307° West  Level FlightAware Approximate
Fri 09:39:49 AM 33.9947 -118.9961 309° West 318 366 20,300  Level Los Angeles Center
Fri 09:40:51 AM 34.0539 -119.0856 309° West 342 394 22,500 2,244 Climbing Los Angeles Center
Fri 09:41:52 AM 34.1156 -119.1797 308° West 355 409 24,900 2,015 Climbing Los Angeles Center
Fri 09:43:05 AM 34.1789 -119.2761 308° West 365 420 27,000 1,911 Climbing Los Angeles Center
Fri 09:44:07 AM 34.2722 -119.4175 309° West 387 445 29,200 1,452 Climbing Los Angeles Center
Fri 09:45:09 AM 34.3539 -119.5111 317° Northwest 402 463 30,000 390 Climbing Los Angeles Center
Fri 09:46:10 AM 34.4386 -119.6081 317° Northwest 416 479 30,000  Level Los Angeles Center
Fri 09:47:11 AM 34.5247 -119.7033 318° Northwest 419 482 30,000  Level Los Angeles Center
Fri 09:48:13 AM 34.6103 -119.8000 317° Northwest 424 488 30,000  Level Los Angeles Center
Fri 09:49:14 AM 34.6972 -119.8975 317° Northwest 426 490 30,000  Level Los Angeles Center
Fri 09:50:16 AM 34.7833 -119.9956 317° Northwest 425 489 30,000  Level Los Angeles Center
Fri 09:51:18 AM 34.8758 -120.1003 317° Northwest 414 476 30,000  Level Los Angeles Center
Fri 09:52:19 AM 34.9583 -120.1961 316° Northwest 414 476 30,000  Level Los Angeles Center
Fri 09:53:21 AM 35.0394 -120.2903 316° Northwest 409 471 30,000  Level Los Angeles Center
Fri 09:54:22 AM 35.1203 -120.3844 316° Northwest 405 466 30,000  Level Los Angeles Center
Fri 09:55:24 AM 35.2017 -120.4794 316° Northwest 406 467 30,000  Level Los Angeles Center
Fri 09:56:25 AM 35.3003 -120.5947 316° Northwest 411 473 30,000  Level Los Angeles Center
Fri 09:57:27 AM 35.3831 -120.6906 317° Northwest 410 472 30,000  Level Los Angeles Center
Fri 09:57:58 AM 35.4306 -120.7478 316° Northwest 409 471 30,000  Level Oakland Center
Fri 09:58:59 AM 35.5136 -120.8456 316° Northwest 410 472 30,000  Level Oakland Center
Fri 10:00:00 AM 35.5997 -120.9394 318° Northwest 412 474 30,000  Level Oakland Center
Fri 10:01:01 AM 35.6931 -121.0203 325° Northwest 410 472 30,000  Level Oakland Center
Fri 10:02:02 AM 35.7872 -121.1022 325° Northwest 412 474 30,000  Level Oakland Center
Fri 10:03:03 AM 35.8806 -121.1839 325° Northwest 411 473 30,000  Level Oakland Center
Fri 10:04:04 AM 35.9742 -121.2669 324° Northwest 415 478 30,000  Level Oakland Center
Fri 10:05:05 AM 36.0650 -121.3500 324° Northwest 409 471 30,000  Level Oakland Center
Fri 10:06:06 AM 36.1586 -121.4314 325° Northwest 412 474 30,000  Level Oakland Center
Fri 10:07:07 AM 36.2517 -121.5150 324° Northwest 415 478 30,000 -49 Level Oakland Center
Fri 10:08:08 AM 36.3456 -121.5950 326° Northwest 411 473 29,900 -1,328 Descending Oakland Center
Fri 10:09:09 AM 36.4378 -121.6797 324° Northwest 415 478 27,300 -2,748 Descending Oakland Center
Fri 10:09:55 AM 36.5167 -121.7500 324° Northwest 405 466 25,000 -2,717 Descending Northern Cal TRACON
Fri 10:10:55 AM 36.6000 -121.8333 321° Northwest 375 432 22,500 -2,400 Descending Northern Cal TRACON
Fri 10:11:55 AM 36.6833 -121.9000 327° Northwest 353 406 20,200 -2,250 Descending Northern Cal TRACON
Fri 10:12:55 AM 36.7500 -121.9667 321° Northwest 328 377 18,000 -1,850 Descending Northern Cal TRACON
Fri 10:13:55 AM 36.8333 -121.9833 351° North 308 354 16,500 -1,579 Descending Northern Cal TRACON
Fri 10:14:49 AM 36.9167 -122.0167 342° North 311 358 15,000 -1,704 Descending Northern Cal TRACON
Fri 10:15:16 AM 36.9575 -122.0208 355° North 309 356 14,200 -1,705 Descending Oakland Center
Fri 10:16:17 AM 37.0422 -122.0419 349° North 311 358 12,500 -1,623 Descending Oakland Center
Fri 10:17:18 AM 37.1242 -122.0628 349° North 304 350 10,900 -1,574 Descending Oakland Center
Fri 10:18:19 AM 37.2022 -122.0831 348° North 290 334 9,300 -1,574 Descending Oakland Center
Fri 10:19:20 AM 37.2792 -122.1039 348° North 284 327 7,700 -1,574 Descending Oakland Center
Fri 10:20:21 AM 37.3531 -122.1236 348° North 274 315 6,100 -1,623 Descending Oakland Center
Fri 10:21:22 AM 37.4236 -122.1375 351° North 262 302 4,400 -1,525 Descending Oakland Center
Fri 10:22:23 AM 37.4919 -122.1514 351° North 255 293 3,000 -885 Descending Oakland Center
Fri 10:23:24 AM 37.5386 -122.1861 329° Northwest 218 251 2,600 -393 Descending Oakland Center

Login

Don't have an account? Register now (free) for customized features, flight alerts, and more!